createdAt,value
2022-07-28T00:01:19.953Z,72.48
2022-07-28T00:03:50.802Z,72.39
2022-07-28T00:06:20.513Z,72.27
2022-07-28T00:08:49.845Z,72.14
2022-07-28T00:11:19.861Z,72.16
2022-07-28T00:13:51.832Z,71.77
2022-07-28T00:16:21.823Z,71.22
2022-07-28T00:18:52.086Z,70.91
2022-07-28T00:21:24.183Z,70.78
2022-07-28T00:23:55.263Z,70.61
2022-07-28T00:26:25.483Z,70.53
2022-07-28T00:28:55.761Z,70.50
2022-07-28T00:31:26.373Z,70.27
2022-07-28T00:33:56.179Z,70.24
2022-07-28T00:36:26.871Z,70.13
2022-07-28T00:38:56.689Z,70.13
2022-07-28T00:41:26.292Z,70.05
2022-07-28T00:43:55.568Z,70.02
2022-07-28T00:46:25.289Z,69.93
2022-07-28T00:48:55.198Z,69.96
2022-07-28T00:51:28.618Z,69.93
2022-07-28T00:53:58.426Z,69.96
2022-07-28T00:56:29.076Z,70.24
2022-07-28T00:58:59.406Z,70.45
2022-07-28T01:01:28.794Z,70.74
2022-07-28T01:04:01.229Z,71.10
2022-07-28T01:06:51.254Z,71.38
2022-07-28T01:09:45.436Z,71.73
2022-07-28T01:12:51.894Z,72.00
2022-07-28T01:15:26.272Z,72.44
2022-07-28T01:18:22.195Z,72.89
2022-07-28T01:21:10.176Z,73.13
2022-07-28T01:24:00.196Z,73.49
2022-07-28T01:26:44.399Z,73.75
2022-07-28T01:30:02.386Z,74.17
2022-07-28T01:32:42.247Z,74.55
2022-07-28T01:35:24.311Z,74.97
2022-07-28T01:37:57.620Z,75.19
2022-07-28T01:40:29.761Z,75.36
2022-07-28T01:43:02.019Z,75.53
2022-07-28T01:45:32.726Z,75.75
2022-07-28T01:48:04.743Z,75.90
2022-07-28T01:50:37.280Z,76.06
2022-07-28T01:53:12.250Z,76.15
2022-07-28T01:55:42.944Z,76.15
2022-07-28T01:58:13.686Z,76.18
2022-07-28T02:00:43.514Z,76.21
2022-07-28T02:03:13.412Z,76.26
2022-07-28T02:05:43.638Z,76.26
2022-07-28T02:08:13.448Z,76.22
2022-07-28T02:10:43.761Z,76.24
2022-07-28T02:13:13.663Z,76.21
2022-07-28T02:15:43.599Z,75.99
2022-07-28T02:18:13.255Z,76.01
2022-07-28T02:20:42.721Z,76.09
2022-07-28T02:23:14.295Z,76.09
2022-07-28T02:25:45.566Z,76.05
2022-07-28T02:28:16.860Z,75.98
2022-07-28T02:30:52.507Z,75.92
2022-07-28T02:33:24.430Z,75.92
2022-07-28T02:36:18.145Z,75.89
2022-07-28T02:38:47.873Z,75.80
2022-07-28T02:41:28.197Z,75.94
2022-07-28T02:44:08.947Z,75.97
2022-07-28T02:46:42.681Z,76.01
2022-07-28T02:49:18.387Z,75.84
2022-07-28T02:51:48.190Z,75.66
2022-07-28T02:54:18.390Z,75.47
2022-07-28T02:56:53.197Z,75.26
2022-07-28T02:59:25.149Z,75.07
2022-07-28T03:01:55.103Z,74.88
2022-07-28T03:04:44.993Z,74.61
2022-07-28T03:07:14.572Z,74.39
2022-07-28T03:09:46.796Z,73.88
2022-07-28T03:12:17.955Z,73.44
2022-07-28T03:14:48.003Z,73.18
2022-07-28T03:17:17.594Z,73.12
2022-07-28T03:19:47.310Z,72.97
2022-07-28T03:22:18.543Z,72.82
2022-07-28T03:24:52.289Z,72.65
2022-07-28T03:27:30.963Z,72.40
2022-07-28T03:30:08.035Z,71.92
2022-07-28T03:32:39.006Z,71.79
2022-07-28T03:35:10.020Z,71.23
2022-07-28T03:37:59.694Z,70.91
2022-07-28T03:40:29.482Z,70.78
2022-07-28T03:43:00.449Z,70.58
2022-07-28T03:45:30.327Z,70.33
2022-07-28T03:48:01.862Z,70.17
2022-07-28T03:50:32.735Z,69.99
2022-07-28T03:53:06.091Z,69.88
2022-07-28T03:55:39.355Z,69.79
2022-07-28T03:58:09.333Z,69.38
2022-07-28T04:00:38.969Z,69.11
2022-07-28T04:03:35.206Z,68.77
2022-07-28T04:05:40.578Z,68.43
2022-07-28T04:08:12.034Z,67.76
2022-07-28T04:10:42.418Z,67.41
2022-07-28T04:13:12.940Z,67.27
2022-07-28T04:15:43.660Z,66.61
2022-07-28T04:18:13.480Z,66.14
2022-07-28T04:20:44.560Z,65.62
2022-07-28T04:23:14.653Z,65.15
2022-07-28T04:25:45.972Z,64.63
2022-07-28T04:28:16.823Z,64.45
2022-07-28T04:30:48.999Z,64.31
2022-07-28T04:33:20.298Z,64.35
2022-07-28T04:35:52.588Z,64.51
2022-07-28T04:38:23.132Z,64.23
2022-07-28T04:40:55.046Z,64.33
2022-07-28T04:43:24.496Z,64.44
2022-07-28T04:45:54.842Z,64.37
2022-07-28T04:48:25.556Z,64.21
2022-07-28T04:50:57.184Z,64.05
2022-07-28T04:53:29.342Z,64.17
2022-07-28T04:55:58.521Z,64.23
2022-07-28T04:58:28.309Z,64.34
2022-07-28T05:01:00.687Z,64.46
2022-07-28T05:03:35.711Z,64.28
2022-07-28T05:06:01.931Z,64.00
2022-07-28T05:08:31.799Z,63.90
2022-07-28T05:11:02.209Z,63.35
2022-07-28T05:13:34.339Z,62.97
2022-07-28T05:16:05.025Z,61.81
2022-07-28T05:18:37.647Z,60.98
2022-07-28T05:21:07.803Z,60.30
2022-07-28T05:23:37.505Z,59.89
2022-07-28T05:26:07.548Z,59.01
2022-07-28T05:28:38.088Z,58.22
2022-07-28T05:31:08.219Z,57.36
2022-07-28T05:33:37.670Z,55.81
2022-07-28T05:36:09.041Z,54.63
2022-07-28T05:38:39.227Z,53.27
2022-07-28T05:41:08.062Z,51.96
2022-07-28T05:43:40.304Z,50.77
2022-07-28T05:46:10.981Z,50.34
2022-07-28T05:48:40.309Z,50.36
2022-07-28T05:51:09.186Z,49.97
2022-07-28T05:53:38.389Z,48.59
2022-07-28T05:56:08.527Z,47.39
2022-07-28T05:58:39.054Z,46.60
2022-07-28T06:01:08.851Z,45.87
2022-07-28T06:03:42.320Z,45.80
2022-07-28T06:06:15.049Z,45.60
2022-07-28T06:08:44.497Z,44.72
2022-07-28T06:11:21.723Z,45.03
2022-07-28T06:13:50.135Z,44.46
2022-07-28T06:16:22.603Z,43.50
2022-07-28T06:18:53.279Z,43.73
2022-07-28T06:21:24.123Z,42.90
2022-07-28T06:23:54.381Z,42.75
2022-07-28T06:26:24.986Z,41.77
2022-07-28T06:28:55.114Z,41.92
2022-07-28T06:31:26.419Z,41.78
2022-07-28T06:33:56.676Z,41.87
2022-07-28T06:36:26.133Z,41.59
2022-07-28T06:38:55.705Z,41.75
2022-07-28T06:41:26.321Z,42.60
2022-07-28T06:46:39.062Z,43.10
2022-07-28T06:49:09.046Z,42.33
2022-07-28T06:51:38.679Z,41.99
2022-07-28T06:54:11.240Z,41.40
2022-07-28T06:56:40.435Z,41.09
2022-07-28T06:59:11.957Z,40.98
2022-07-28T07:01:41.614Z,40.57
2022-07-28T07:04:12.235Z,41.00
2022-07-28T07:06:43.468Z,40.30
2022-07-28T07:09:12.946Z,40.30
2022-07-28T07:11:42.956Z,40.10
2022-07-28T07:14:12.419Z,40.02
2022-07-28T07:16:42.869Z,40.05
2022-07-28T07:19:15.892Z,39.44
2022-07-28T07:21:46.099Z,39.37
2022-07-28T07:24:15.967Z,38.68
2022-07-28T07:26:45.372Z,38.28
2022-07-28T07:29:16.546Z,38.13
2022-07-28T07:31:46.322Z,37.74
2022-07-28T07:34:17.517Z,37.29
2022-07-28T07:36:48.136Z,37.16
2022-07-28T07:39:18.419Z,37.14
2022-07-28T07:41:47.851Z,36.90
2022-07-28T07:44:17.701Z,36.87
2022-07-28T07:46:49.203Z,36.44
2022-07-28T07:49:20.089Z,36.10
2022-07-28T07:51:49.127Z,36.10
2022-07-28T07:54:18.188Z,35.68
2022-07-28T07:56:48.587Z,35.49
2022-07-28T07:59:18.097Z,35.92
2022-07-28T08:01:49.963Z,35.55
2022-07-28T08:04:19.329Z,35.29
2022-07-28T08:06:51.081Z,35.48
2022-07-28T08:09:22.975Z,35.23
2022-07-28T08:11:54.024Z,35.29
2022-07-28T08:14:23.602Z,35.04
2022-07-28T08:16:53.382Z,35.01
2022-07-28T08:19:24.102Z,34.98
2022-07-28T08:21:53.381Z,35.07
2022-07-28T08:24:32.983Z,34.94
2022-07-28T08:26:56.277Z,34.46
2022-07-28T08:29:26.521Z,33.96
2022-07-28T08:31:57.595Z,33.19
2022-07-28T08:34:33.004Z,33.00
2022-07-28T08:37:05.657Z,33.08
2022-07-28T08:39:36.271Z,33.04
2022-07-28T08:42:15.997Z,33.04
2022-07-28T08:45:04.650Z,32.72
2022-07-28T08:47:58.862Z,32.86
2022-07-28T08:50:11.905Z,33.01
2022-07-28T08:52:42.831Z,33.51
2022-07-28T08:55:17.602Z,33.45
2022-07-28T08:57:44.023Z,33.30
2022-07-28T09:00:16.199Z,33.34
2022-07-28T09:02:52.184Z,33.07
2022-07-28T09:05:21.189Z,33.29
2022-07-28T09:07:55.204Z,33.27
2022-07-28T09:10:28.498Z,33.06
2022-07-28T09:13:00.057Z,33.05
2022-07-28T09:15:29.687Z,33.34
2022-07-28T09:18:00.740Z,33.33
2022-07-28T09:20:32.635Z,33.25
2022-07-28T09:23:41.855Z,33.45
2022-07-28T09:25:44.360Z,33.35
2022-07-28T09:28:18.211Z,33.54
2022-07-28T09:30:53.674Z,34.13
2022-07-28T09:33:42.028Z,34.45
2022-07-28T09:35:58.671Z,34.44
2022-07-28T09:38:28.421Z,34.70
2022-07-28T09:41:02.333Z,34.70
2022-07-28T09:43:43.742Z,34.31
2022-07-28T09:46:15.437Z,34.83
2022-07-28T09:48:58.248Z,34.90
2022-07-28T09:51:31.900Z,34.99
2022-07-28T09:54:14.435Z,35.11
2022-07-28T09:56:45.850Z,35.50
2022-07-28T09:59:18.329Z,35.43
2022-07-28T10:02:02.954Z,35.50
2022-07-28T10:04:39.887Z,35.61
2022-07-28T10:07:14.737Z,35.45
2022-07-28T10:09:44.430Z,35.64
2022-07-28T10:12:24.403Z,35.68
2022-07-28T10:15:04.287Z,35.47
2022-07-28T10:17:35.399Z,35.63
2022-07-28T10:20:06.920Z,35.43
2022-07-28T10:22:42.599Z,35.61
2022-07-28T10:25:10.076Z,35.76
2022-07-28T10:27:41.579Z,35.68
2022-07-28T10:30:12.723Z,35.60
2022-07-28T10:32:46.989Z,35.65
2022-07-28T10:35:18.286Z,35.66
2022-07-28T10:37:54.781Z,35.94
2022-07-28T10:40:32.308Z,35.74
2022-07-28T10:43:04.414Z,36.15
2022-07-28T10:46:04.611Z,36.26
2022-07-28T10:48:10.880Z,35.98
2022-07-28T10:50:43.395Z,35.69
2022-07-28T10:53:13.154Z,35.73
2022-07-28T10:55:50.397Z,35.56
2022-07-28T10:58:41.981Z,35.75
2022-07-28T11:01:26.746Z,36.05
2022-07-28T11:03:47.387Z,35.81
2022-07-28T11:06:29.489Z,35.94
2022-07-28T11:09:18.560Z,36.30
2022-07-28T11:11:54.368Z,36.12
2022-07-28T11:14:30.584Z,36.01
2022-07-28T11:17:11.307Z,36.39
2022-07-28T11:20:07.110Z,36.58
2022-07-28T11:22:27.210Z,36.37
2022-07-28T11:25:18.803Z,36.37
2022-07-28T11:27:52.091Z,35.82
2022-07-28T11:30:35.449Z,35.52
2022-07-28T11:33:11.177Z,35.93
2022-07-28T11:35:49.848Z,36.14
2022-07-28T11:38:20.194Z,36.16
2022-07-28T11:40:53.230Z,36.02
2022-07-28T11:43:35.702Z,35.86
2022-07-28T11:46:15.173Z,35.55
2022-07-28T11:48:46.223Z,35.93
2022-07-28T11:51:19.478Z,36.28
2022-07-28T11:53:53.799Z,36.34
2022-07-28T11:56:26.300Z,36.21
2022-07-28T11:59:03.767Z,36.13
2022-07-28T12:01:38.286Z,36.17
2022-07-28T12:04:13.363Z,35.96
2022-07-28T12:06:49.502Z,36.31
2022-07-28T12:09:23.314Z,36.71
2022-07-28T12:11:51.474Z,36.28
2022-07-28T12:14:24.600Z,36.21
2022-07-28T12:16:55.241Z,36.39
2022-07-28T12:19:32.668Z,36.58
2022-07-28T12:21:58.376Z,36.36
2022-07-28T12:24:31.833Z,36.32
2022-07-28T12:27:04.794Z,36.13
2022-07-28T12:29:36.609Z,36.00
2022-07-28T12:32:09.438Z,35.95
2022-07-28T12:34:40.838Z,35.77
2022-07-28T12:37:10.243Z,35.97
2022-07-28T12:39:44.294Z,36.16
2022-07-28T12:42:14.613Z,36.18
2022-07-28T12:44:46.157Z,36.28
2022-07-28T12:47:18.569Z,36.20
2022-07-28T12:49:51.846Z,35.99
2022-07-28T12:52:24.777Z,35.80
2022-07-28T12:54:56.426Z,35.83
2022-07-28T12:57:49.898Z,35.59
2022-07-28T13:00:18.127Z,35.87
2022-07-28T13:02:50.070Z,35.70
2022-07-28T13:05:36.194Z,35.49
2022-07-28T13:08:08.044Z,35.66
2022-07-28T13:10:40.921Z,35.70
2022-07-28T13:13:13.653Z,35.56
2022-07-28T13:15:44.564Z,35.42
2022-07-28T13:18:15.494Z,35.79
2022-07-28T13:20:49.163Z,35.34
2022-07-28T13:23:20.956Z,35.26
2022-07-28T13:25:52.135Z,35.05
2022-07-28T13:28:26.132Z,35.03
2022-07-28T13:30:55.827Z,34.71
2022-07-28T13:33:29.782Z,34.73
2022-07-28T13:36:00.666Z,34.77
2022-07-28T13:38:29.697Z,34.85
2022-07-28T13:41:00.764Z,34.76
2022-07-28T13:43:36.264Z,34.73
2022-07-28T13:46:02.179Z,34.76
2022-07-28T13:48:32.929Z,34.88
2022-07-28T13:51:03.267Z,34.77
2022-07-28T13:53:32.474Z,34.25
2022-07-28T13:56:01.378Z,33.82
2022-07-28T13:58:31.432Z,34.00
2022-07-28T14:01:01.744Z,33.94
2022-07-28T14:03:55.450Z,34.32
2022-07-28T14:06:04.176Z,34.31
2022-07-28T14:08:34.707Z,34.20
2022-07-28T14:11:05.804Z,34.50
2022-07-28T14:13:38.591Z,34.48
2022-07-28T14:16:11.061Z,34.63
2022-07-28T14:18:39.687Z,34.61
2022-07-28T14:21:09.199Z,34.58
2022-07-28T14:23:39.373Z,34.25
2022-07-28T14:26:34.603Z,34.08
2022-07-28T14:28:42.467Z,34.14
2022-07-28T14:31:12.785Z,33.93
2022-07-28T14:33:48.385Z,33.91
2022-07-28T14:36:17.112Z,33.82
2022-07-28T14:38:53.437Z,33.97
2022-07-28T14:41:18.678Z,33.89
2022-07-28T14:43:48.598Z,34.07
2022-07-28T14:46:21.622Z,34.31
2022-07-28T14:48:50.391Z,33.99
2022-07-28T14:51:19.692Z,34.03
2022-07-28T14:53:52.196Z,33.98
2022-07-28T14:56:21.579Z,33.98
2022-07-28T14:58:51.301Z,33.99
2022-07-28T15:01:20.655Z,34.07
2022-07-28T15:03:50.343Z,34.01
2022-07-28T15:06:19.777Z,33.90
2022-07-28T15:08:50.263Z,34.24
2022-07-28T15:11:22.342Z,34.32
2022-07-28T15:13:53.169Z,34.31
2022-07-28T15:16:23.803Z,34.12
2022-07-28T15:18:54.200Z,34.42
2022-07-28T15:21:24.138Z,34.28
2022-07-28T15:23:53.568Z,34.13
2022-07-28T15:26:24.932Z,34.38
2022-07-28T15:28:54.807Z,34.54
2022-07-28T15:31:25.362Z,34.59
2022-07-28T15:33:59.168Z,34.57
2022-07-28T15:36:34.967Z,34.47
2022-07-28T15:39:06.753Z,34.48
2022-07-28T15:41:44.692Z,34.65
2022-07-28T15:44:17.018Z,34.62
2022-07-28T15:47:10.083Z,34.67
2022-07-28T15:49:40.085Z,35.05
2022-07-28T15:52:10.277Z,34.77
2022-07-28T15:54:40.331Z,34.77
2022-07-28T15:57:11.824Z,34.58
2022-07-28T15:59:48.707Z,34.61
2022-07-28T16:02:17.411Z,34.74
2022-07-28T16:04:49.017Z,34.61
2022-07-28T16:07:22.570Z,34.54
2022-07-28T16:09:53.980Z,34.51
2022-07-28T16:12:27.912Z,34.46
2022-07-28T16:14:58.677Z,34.66
2022-07-28T16:17:28.140Z,34.19
2022-07-28T16:20:02.353Z,34.00
2022-07-28T16:22:32.220Z,34.01
2022-07-28T16:25:01.637Z,34.06
2022-07-28T16:27:32.498Z,34.25
2022-07-28T16:30:03.194Z,34.21
2022-07-28T16:32:33.960Z,34.19
2022-07-28T16:35:03.487Z,34.31
2022-07-28T16:37:35.562Z,34.11
2022-07-28T16:40:05.844Z,34.11
2022-07-28T16:42:38.613Z,34.03
2022-07-28T16:45:09.771Z,34.08
2022-07-28T16:47:38.782Z,33.87
2022-07-28T16:50:09.769Z,34.11
2022-07-28T16:52:40.574Z,34.23
2022-07-28T16:55:15.220Z,34.11
2022-07-28T16:57:41.695Z,34.16
2022-07-28T17:00:12.486Z,34.03
2022-07-28T17:02:43.066Z,33.91
2022-07-28T17:05:13.523Z,33.92
2022-07-28T17:07:45.812Z,34.30
2022-07-28T17:10:20.276Z,34.35
2022-07-28T17:12:49.632Z,34.32
2022-07-28T17:15:22.766Z,34.33
2022-07-28T17:17:54.024Z,34.38
2022-07-28T17:20:25.417Z,34.49
2022-07-28T17:22:55.808Z,34.75
2022-07-28T17:27:58.469Z,35.18
2022-07-28T17:30:30.093Z,35.28
2022-07-28T17:33:03.495Z,35.42
2022-07-28T17:35:35.258Z,35.48
2022-07-28T17:38:04.302Z,35.53
2022-07-28T17:40:35.019Z,35.63
2022-07-28T17:43:05.066Z,36.00
2022-07-28T17:45:34.531Z,36.08
2022-07-28T17:48:04.811Z,36.14
2022-07-28T17:50:34.263Z,36.36
2022-07-28T17:53:03.799Z,36.75
2022-07-28T17:55:40.820Z,37.13
2022-07-28T17:58:23.516Z,37.45
2022-07-28T18:00:57.755Z,37.88
2022-07-28T18:03:29.229Z,38.22
2022-07-28T18:06:00.736Z,38.48
2022-07-28T18:08:30.865Z,38.70
2022-07-28T18:11:01.521Z,39.02
2022-07-28T18:13:31.989Z,39.59
2022-07-28T18:16:03.406Z,39.91
2022-07-28T18:18:34.882Z,40.04
2022-07-28T18:21:04.944Z,40.32
2022-07-28T18:23:35.475Z,40.44
2022-07-28T18:26:04.646Z,40.67
2022-07-28T18:28:36.112Z,40.95
2022-07-28T18:31:10.912Z,41.31
2022-07-28T18:33:41.813Z,41.30
2022-07-28T18:36:11.093Z,41.45
2022-07-28T18:38:41.414Z,41.67
2022-07-28T18:41:10.767Z,41.86
2022-07-28T18:43:40.390Z,42.03
2022-07-28T18:46:10.364Z,42.22
2022-07-28T18:48:40.244Z,42.32
2022-07-28T18:51:10.873Z,42.48
2022-07-28T18:53:40.720Z,42.62
2022-07-28T18:56:10.622Z,42.86
2022-07-28T18:58:42.210Z,42.93
2022-07-28T19:01:13.167Z,43.14
2022-07-28T19:03:43.503Z,43.36
2022-07-28T19:06:12.572Z,43.55
2022-07-28T19:08:44.290Z,43.78
2022-07-28T19:11:18.729Z,43.93
2022-07-28T19:13:45.940Z,43.95
2022-07-28T19:16:15.719Z,44.13
2022-07-28T19:18:47.080Z,44.40
2022-07-28T19:21:15.979Z,44.67
2022-07-28T19:23:46.933Z,44.83
2022-07-28T19:26:16.884Z,44.89
2022-07-28T19:28:47.078Z,45.07
2022-07-28T19:31:18.165Z,45.11
2022-07-28T19:33:48.496Z,45.35
2022-07-28T19:36:20.160Z,45.56
2022-07-28T19:38:49.340Z,45.71
2022-07-28T19:41:19.773Z,45.78
2022-07-28T19:43:49.454Z,45.98
2022-07-28T19:46:19.339Z,46.09
2022-07-28T19:48:49.876Z,46.27
2022-07-28T19:51:19.641Z,46.29
2022-07-28T19:53:49.454Z,46.43
2022-07-28T19:56:19.277Z,46.64
2022-07-28T19:58:49.967Z,46.82
2022-07-28T20:01:19.220Z,46.96
2022-07-28T20:04:03.693Z,47.22
2022-07-28T20:06:25.127Z,47.39
2022-07-28T20:08:56.608Z,47.44
2022-07-28T20:11:27.939Z,47.51
2022-07-28T20:13:57.918Z,47.73
2022-07-28T20:16:27.960Z,47.68
2022-07-28T20:18:58.034Z,47.91
2022-07-28T20:21:28.520Z,48.15
2022-07-28T20:23:59.873Z,48.52
2022-07-28T20:26:30.021Z,48.72
2022-07-28T20:29:01.711Z,48.91
2022-07-28T20:31:32.906Z,49.00
2022-07-28T20:34:04.377Z,49.13
2022-07-28T20:36:35.185Z,49.32
2022-07-28T20:39:21.167Z,49.58
2022-07-28T20:41:37.707Z,49.71
2022-07-28T20:44:27.705Z,49.85
2022-07-28T20:46:40.443Z,49.95
2022-07-28T20:49:10.283Z,50.19
2022-07-28T20:51:40.316Z,50.63
2022-07-28T20:54:12.193Z,50.77
2022-07-28T20:56:43.672Z,50.85
2022-07-28T20:59:13.934Z,50.83
2022-07-28T21:01:44.365Z,50.80
2022-07-28T21:04:13.916Z,50.83
2022-07-28T21:06:51.999Z,50.86
2022-07-28T21:09:15.632Z,51.01
2022-07-28T21:11:46.014Z,51.16
2022-07-28T21:14:16.603Z,51.17
2022-07-28T21:16:46.876Z,51.22
2022-07-28T21:19:17.693Z,51.32
2022-07-28T21:21:47.553Z,51.55
2022-07-28T21:24:18.135Z,51.62
2022-07-28T21:26:50.408Z,51.84
2022-07-28T21:32:04.230Z,52.19
2022-07-28T21:34:23.321Z,52.13
2022-07-28T21:36:53.788Z,52.08
2022-07-28T21:39:23.937Z,52.29
2022-07-28T21:41:53.790Z,52.52
2022-07-28T21:44:23.383Z,52.54
2022-07-28T21:46:54.490Z,52.54
2022-07-28T21:49:26.186Z,52.67
2022-07-28T21:51:57.365Z,52.81
2022-07-28T21:54:27.364Z,53.20
2022-07-28T21:56:56.647Z,53.28
2022-07-28T21:59:26.876Z,53.33
2022-07-28T22:01:57.875Z,53.51
2022-07-28T22:04:28.152Z,53.66
2022-07-28T22:06:58.347Z,53.64
2022-07-28T22:09:30.518Z,53.69
2022-07-28T22:12:03.623Z,53.85
2022-07-28T22:14:34.059Z,54.04
2022-07-28T22:17:05.773Z,54.29
2022-07-28T22:19:36.224Z,54.53
2022-07-28T22:22:06.143Z,54.81
2022-07-28T22:24:36.306Z,55.09
2022-07-28T22:27:06.546Z,55.16
2022-07-28T22:29:36.610Z,55.07
2022-07-28T22:32:07.777Z,55.04
2022-07-28T22:34:40.821Z,55.30
2022-07-28T22:37:13.160Z,55.38
2022-07-28T22:39:42.966Z,55.40
2022-07-28T22:42:11.946Z,55.41
2022-07-28T22:44:43.353Z,55.46
2022-07-28T22:47:13.997Z,55.45
2022-07-28T22:49:44.293Z,55.49
2022-07-28T22:52:13.959Z,55.61
2022-07-28T22:54:44.172Z,55.96
2022-07-28T22:57:14.142Z,56.08
2022-07-28T22:59:48.029Z,56.00
2022-07-28T23:02:16.533Z,55.92
2022-07-28T23:04:51.565Z,55.97
2022-07-28T23:07:19.220Z,55.97
2022-07-28T23:09:51.161Z,55.89
2022-07-28T23:12:22.016Z,56.05
2022-07-28T23:14:51.686Z,56.22
2022-07-28T23:17:20.484Z,56.27
2022-07-28T23:19:53.199Z,56.38
2022-07-28T23:22:25.424Z,56.53
2022-07-28T23:24:54.481Z,56.65
2022-07-28T23:27:23.870Z,56.79
2022-07-28T23:29:54.617Z,56.95
2022-07-28T23:32:25.801Z,57.00
2022-07-28T23:34:57.434Z,57.18
2022-07-28T23:37:28.917Z,57.13
2022-07-28T23:39:59.226Z,56.99
2022-07-28T23:42:28.609Z,56.93
2022-07-28T23:44:58.570Z,56.87
2022-07-28T23:47:28.095Z,56.77
2022-07-28T23:49:58.406Z,56.71
2022-07-28T23:52:29.018Z,56.66
2022-07-28T23:54:58.264Z,56.64
2022-07-28T23:57:31.049Z,56.68
